createdAt,value
2023-05-16T00:02:24.449Z,10.30
2023-05-16T00:04:51.913Z,10.30
2023-05-16T00:07:18.700Z,10.30
2023-05-16T00:09:45.765Z,10.30
2023-05-16T00:12:13.378Z,10.30
2023-05-16T00:14:40.187Z,10.20
2023-05-16T00:17:12.268Z,10.20
2023-05-16T00:19:39.342Z,10.20
2023-05-16T00:22:06.473Z,10.10
2023-05-16T00:24:34.330Z,10.00
2023-05-16T00:27:01.385Z,9.90
2023-05-16T00:29:28.561Z,9.90
2023-05-16T00:31:56.077Z,9.90
2023-05-16T00:34:23.095Z,9.90
2023-05-16T00:36:53.027Z,9.90
2023-05-16T00:39:19.946Z,9.90
2023-05-16T00:41:46.805Z,9.80
2023-05-16T00:44:13.724Z,9.80
2023-05-16T00:46:40.768Z,9.90
2023-05-16T00:49:08.407Z,9.90
2023-05-16T00:51:35.387Z,9.90
2023-05-16T00:54:02.261Z,10.00
2023-05-16T00:56:29.038Z,9.90
2023-05-16T00:58:56.116Z,9.90
2023-05-16T01:01:24.696Z,9.90
2023-05-16T01:03:53.070Z,9.90
2023-05-16T01:06:20.197Z,10.00
2023-05-16T01:08:47.020Z,10.00
2023-05-16T01:11:27.342Z,10.00
2023-05-16T01:14:17.031Z,9.90
2023-05-16T01:17:06.550Z,9.90
2023-05-16T01:19:45.426Z,9.80
2023-05-16T01:22:17.244Z,9.70
2023-05-16T01:25:12.126Z,9.70
2023-05-16T01:27:40.012Z,9.60
2023-05-16T01:30:17.512Z,9.60
2023-05-16T01:32:44.382Z,9.60
2023-05-16T01:35:12.832Z,9.60
2023-05-16T01:38:15.517Z,9.60
2023-05-16T01:40:52.379Z,9.60
2023-05-16T01:43:25.854Z,9.60
2023-05-16T01:45:57.881Z,9.60
2023-05-16T01:48:27.596Z,9.60
2023-05-16T01:50:56.585Z,9.60
2023-05-16T01:53:27.331Z,9.60
2023-05-16T01:55:56.670Z,9.60
2023-05-16T01:58:25.396Z,9.60
2023-05-16T02:00:55.391Z,9.60
2023-05-16T02:03:22.325Z,9.60
2023-05-16T02:05:49.564Z,9.60
2023-05-16T02:08:16.476Z,9.60
2023-05-16T02:10:43.575Z,9.60
2023-05-16T02:13:10.445Z,9.60
2023-05-16T02:15:37.281Z,9.60
2023-05-16T02:18:04.325Z,9.50
2023-05-16T02:20:31.489Z,9.50
2023-05-16T02:22:58.315Z,9.50
2023-05-16T02:25:25.670Z,9.40
2023-05-16T02:27:52.697Z,9.40
2023-05-16T02:30:19.604Z,9.40
2023-05-16T02:32:46.555Z,9.30
2023-05-16T02:35:13.420Z,9.30
2023-05-16T02:37:40.832Z,9.30
2023-05-16T02:40:09.035Z,9.30
2023-05-16T02:42:36.864Z,9.30
2023-05-16T02:45:03.962Z,9.30
2023-05-16T02:47:30.957Z,9.30
2023-05-16T02:49:57.819Z,9.30
2023-05-16T02:52:24.989Z,9.20
2023-05-16T02:55:09.312Z,9.10
2023-05-16T02:57:38.655Z,9.00
2023-05-16T03:00:06.378Z,8.90
2023-05-16T03:02:33.490Z,8.90
2023-05-16T03:05:00.505Z,8.80
2023-05-16T03:07:27.297Z,8.80
2023-05-16T03:09:54.209Z,8.80
2023-05-16T03:12:21.086Z,8.80
2023-05-16T03:14:47.924Z,8.70
2023-05-16T03:17:14.768Z,8.70
2023-05-16T03:19:41.632Z,8.60
2023-05-16T03:22:08.494Z,8.60
2023-05-16T03:24:35.493Z,8.60
2023-05-16T03:27:04.608Z,8.60
2023-05-16T03:29:31.477Z,8.60
2023-05-16T03:31:58.391Z,8.60
2023-05-16T03:34:25.472Z,8.70
2023-05-16T03:36:52.557Z,8.60
2023-05-16T03:39:19.709Z,8.70
2023-05-16T03:41:46.524Z,8.70
2023-05-16T03:44:13.340Z,8.80
2023-05-16T03:46:40.147Z,8.80
2023-05-16T03:49:06.977Z,8.80
2023-05-16T03:51:34.149Z,8.90
2023-05-16T03:54:01.160Z,8.90
2023-05-16T03:56:28.046Z,8.90
2023-05-16T03:58:54.859Z,8.90
2023-05-16T04:01:22.543Z,8.90
2023-05-16T04:03:50.759Z,8.80
2023-05-16T04:06:17.956Z,8.80
2023-05-16T04:08:45.055Z,8.70
2023-05-16T04:11:12.207Z,8.70
2023-05-16T04:13:39.133Z,8.70
2023-05-16T04:16:06.578Z,8.70
2023-05-16T04:18:33.643Z,8.70
2023-05-16T04:21:00.591Z,8.80
2023-05-16T04:23:27.429Z,8.90
2023-05-16T04:25:55.225Z,9.00
2023-05-16T04:28:22.267Z,8.90
2023-05-16T04:30:49.338Z,9.00
2023-05-16T04:33:16.668Z,9.00
2023-05-16T04:35:43.518Z,9.00
2023-05-16T04:38:10.753Z,9.00
2023-05-16T04:40:37.778Z,9.00
2023-05-16T04:43:04.655Z,9.10
2023-05-16T04:45:31.583Z,9.00
2023-05-16T04:47:58.511Z,9.10
2023-05-16T04:50:25.361Z,9.00
2023-05-16T04:52:53.132Z,9.10
2023-05-16T04:55:21.423Z,9.10
2023-05-16T04:57:48.292Z,9.10
2023-05-16T05:00:16.321Z,9.10
2023-05-16T05:02:43.787Z,9.10
2023-05-16T05:05:11.390Z,9.10
2023-05-16T05:07:38.278Z,9.10
2023-05-16T05:10:06.673Z,9.10
2023-05-16T05:12:33.833Z,9.00
2023-05-16T05:15:00.740Z,9.10
2023-05-16T05:17:27.645Z,9.10
2023-05-16T05:19:54.557Z,9.10
2023-05-16T05:22:21.451Z,9.20
2023-05-16T05:24:48.367Z,9.10
2023-05-16T05:27:15.176Z,9.20
2023-05-16T05:29:42.020Z,9.30
2023-05-16T05:32:09.096Z,9.40
2023-05-16T05:34:36.346Z,9.40
2023-05-16T05:37:03.635Z,9.50
2023-05-16T05:39:30.472Z,9.50
2023-05-16T05:41:58.726Z,9.60
2023-05-16T05:44:25.678Z,9.70
2023-05-16T05:46:52.455Z,9.70
2023-05-16T05:49:19.345Z,9.70
2023-05-16T05:51:46.295Z,9.70
2023-05-16T05:54:13.421Z,9.70
2023-05-16T05:56:40.316Z,9.70
2023-05-16T05:59:07.182Z,9.70
2023-05-16T06:01:34.087Z,9.80
2023-05-16T06:04:02.205Z,9.80
2023-05-16T06:06:29.304Z,9.80
2023-05-16T06:08:56.102Z,9.80
2023-05-16T06:11:22.878Z,10.00
2023-05-16T06:13:49.775Z,10.00
2023-05-16T06:16:16.726Z,10.10
2023-05-16T06:18:43.756Z,10.10
2023-05-16T06:21:11.111Z,10.10
2023-05-16T06:23:38.023Z,10.20
2023-05-16T06:26:04.995Z,10.20
2023-05-16T06:28:31.874Z,10.20
2023-05-16T06:30:58.747Z,10.20
2023-05-16T06:33:25.763Z,10.30
2023-05-16T06:35:52.687Z,10.40
2023-05-16T06:38:19.824Z,10.40
2023-05-16T06:40:46.668Z,10.50
2023-05-16T06:43:13.715Z,10.40
2023-05-16T06:45:41.186Z,10.40
2023-05-16T06:48:08.371Z,10.50
2023-05-16T06:50:38.247Z,10.60
2023-05-16T06:53:07.334Z,10.70
2023-05-16T06:55:34.750Z,10.80
2023-05-16T06:58:01.602Z,10.90
2023-05-16T07:00:28.483Z,10.90
2023-05-16T07:02:55.485Z,10.90
2023-05-16T07:05:22.461Z,11.00
2023-05-16T07:07:49.841Z,11.00
2023-05-16T07:10:16.781Z,10.90
2023-05-16T07:12:43.731Z,11.00
2023-05-16T07:15:11.092Z,10.90
2023-05-16T07:17:38.111Z,10.90
2023-05-16T07:20:06.682Z,11.00
2023-05-16T07:22:33.680Z,11.00
2023-05-16T07:25:01.336Z,11.10
2023-05-16T07:27:28.616Z,11.10
2023-05-16T07:29:55.740Z,11.20
2023-05-16T07:32:22.641Z,11.20
2023-05-16T07:34:49.558Z,11.30
2023-05-16T07:37:16.606Z,11.30
2023-05-16T07:39:43.516Z,11.30
2023-05-16T07:42:10.446Z,11.40
2023-05-16T07:44:37.312Z,11.50
2023-05-16T07:47:04.381Z,11.50
2023-05-16T07:49:31.275Z,11.50
2023-05-16T07:51:58.149Z,11.50
2023-05-16T07:54:25.101Z,11.50
2023-05-16T07:56:51.969Z,11.60
2023-05-16T07:59:18.837Z,11.70
2023-05-16T08:01:46.086Z,11.70
2023-05-16T08:04:13.008Z,11.80
2023-05-16T08:06:40.300Z,11.80
2023-05-16T08:09:07.124Z,11.90
2023-05-16T08:11:33.991Z,12.00
2023-05-16T08:14:00.849Z,12.00
2023-05-16T08:16:27.907Z,12.00
2023-05-16T08:18:55.343Z,12.10
2023-05-16T08:21:22.420Z,12.20
2023-05-16T08:23:49.241Z,12.20
2023-05-16T08:26:17.740Z,12.30
2023-05-16T08:28:44.636Z,12.30
2023-05-16T08:31:11.649Z,12.30
2023-05-16T08:33:38.545Z,12.30
2023-05-16T08:36:06.250Z,12.40
2023-05-16T08:38:33.143Z,12.50
2023-05-16T08:41:00.329Z,12.50
2023-05-16T08:43:27.140Z,12.60
2023-05-16T08:45:54.335Z,12.60
2023-05-16T08:48:23.287Z,12.70
2023-05-16T08:50:50.228Z,12.70
2023-05-16T08:53:20.654Z,12.70
2023-05-16T08:55:48.388Z,12.80
2023-05-16T08:58:15.273Z,12.80
2023-05-16T09:00:42.189Z,12.80
2023-05-16T09:03:09.078Z,12.80
2023-05-16T09:05:35.942Z,12.80
2023-05-16T09:08:02.761Z,12.90
2023-05-16T09:10:29.594Z,13.00
2023-05-16T09:12:56.465Z,13.00
2023-05-16T09:15:23.454Z,13.10
2023-05-16T09:17:50.508Z,13.10
2023-05-16T09:20:18.793Z,13.10
2023-05-16T09:22:56.278Z,13.20
2023-05-16T09:27:58.501Z,13.30
2023-05-16T09:30:29.963Z,13.30
2023-05-16T09:32:57.031Z,13.30
2023-05-16T09:35:39.810Z,13.40
2023-05-16T09:38:17.461Z,13.40
2023-05-16T09:40:45.388Z,13.40
2023-05-16T09:43:14.517Z,13.50
2023-05-16T09:45:41.575Z,13.60
2023-05-16T09:48:12.974Z,13.70
2023-05-16T09:50:40.624Z,13.80
2023-05-16T09:53:07.523Z,13.80
2023-05-16T09:55:34.497Z,13.80
2023-05-16T09:58:01.390Z,13.90
2023-05-16T10:00:32.173Z,14.10
2023-05-16T10:03:02.231Z,14.10
2023-05-16T10:05:31.371Z,14.10
2023-05-16T10:07:58.455Z,14.20
2023-05-16T10:10:25.677Z,14.20
2023-05-16T10:12:52.612Z,14.20
2023-05-16T10:15:19.496Z,14.10
2023-05-16T10:17:47.263Z,14.10
2023-05-16T10:20:14.145Z,14.20
2023-05-16T10:22:43.458Z,14.40
2023-05-16T10:25:34.623Z,14.40
2023-05-16T10:28:01.511Z,14.50
2023-05-16T10:30:28.418Z,14.50
2023-05-16T10:32:56.408Z,14.60
2023-05-16T10:35:23.354Z,14.60
2023-05-16T10:37:50.507Z,14.70
2023-05-16T10:40:17.401Z,14.70
2023-05-16T10:43:04.869Z,14.70
2023-05-16T10:45:31.955Z,14.70
2023-05-16T10:48:00.922Z,14.70
2023-05-16T10:50:53.952Z,14.70
2023-05-16T10:53:30.444Z,14.80
2023-05-16T10:56:00.799Z,14.90
2023-05-16T10:58:36.653Z,14.80
2023-05-16T11:01:21.672Z,14.80
2023-05-16T11:04:10.199Z,14.90
2023-05-16T11:06:42.937Z,14.90
2023-05-16T11:09:15.721Z,15.00
2023-05-16T11:11:50.977Z,15.00
2023-05-16T11:14:24.101Z,15.00
2023-05-16T11:17:15.557Z,15.00
2023-05-16T11:19:42.407Z,15.10
2023-05-16T11:22:34.546Z,15.20
2023-05-16T11:25:06.509Z,15.30
2023-05-16T11:27:42.762Z,15.40
2023-05-16T11:30:13.949Z,15.20
2023-05-16T11:32:42.685Z,15.10
2023-05-16T11:35:14.325Z,15.10
2023-05-16T11:37:42.188Z,15.10
2023-05-16T11:40:11.405Z,15.20
2023-05-16T11:42:42.532Z,15.40
2023-05-16T11:45:14.914Z,15.50
2023-05-16T11:47:42.712Z,15.60
2023-05-16T11:50:20.535Z,15.60
2023-05-16T11:52:56.405Z,15.50
2023-05-16T11:58:00.552Z,15.50
2023-05-16T12:00:27.587Z,15.50
2023-05-16T12:02:55.319Z,15.50
2023-05-16T12:05:27.139Z,15.40
2023-05-16T12:07:54.801Z,15.60
2023-05-16T12:10:25.298Z,15.70
2023-05-16T12:13:12.003Z,15.80
2023-05-16T12:15:42.482Z,15.90
2023-05-16T12:18:10.109Z,15.80
2023-05-16T12:20:37.191Z,15.80
2023-05-16T12:23:04.647Z,15.80
2023-05-16T12:25:32.560Z,15.80
2023-05-16T12:28:01.047Z,15.90
2023-05-16T12:30:28.938Z,16.00
2023-05-16T12:33:00.020Z,16.20
2023-05-16T12:35:32.187Z,16.30
2023-05-16T12:37:59.411Z,16.20
2023-05-16T12:40:32.012Z,16.10
2023-05-16T12:42:59.436Z,15.90
2023-05-16T12:45:29.483Z,15.90
2023-05-16T12:47:56.570Z,15.90
2023-05-16T12:50:23.474Z,16.10
2023-05-16T12:52:54.421Z,16.30
2023-05-16T12:55:22.465Z,16.30
2023-05-16T12:57:49.936Z,16.40
2023-05-16T13:00:21.728Z,16.40
2023-05-16T13:02:48.769Z,16.50
2023-05-16T13:05:15.881Z,16.40
2023-05-16T13:07:42.839Z,16.50
2023-05-16T13:10:12.658Z,16.40
2023-05-16T13:12:40.357Z,16.40
2023-05-16T13:15:08.292Z,16.30
2023-05-16T13:17:35.683Z,16.30
2023-05-16T13:20:08.039Z,16.40
2023-05-16T13:22:35.194Z,16.30
2023-05-16T13:25:02.435Z,16.30
2023-05-16T13:27:29.384Z,16.40
2023-05-16T13:29:56.292Z,16.40
2023-05-16T13:32:23.149Z,16.50
2023-05-16T13:34:49.955Z,16.60
2023-05-16T13:37:17.314Z,16.60
2023-05-16T13:39:44.232Z,16.60
2023-05-16T13:42:11.117Z,16.70
2023-05-16T13:44:38.214Z,16.70
2023-05-16T13:47:05.157Z,16.80
2023-05-16T13:49:32.021Z,16.80
2023-05-16T13:51:59.070Z,16.80
2023-05-16T13:54:26.515Z,16.80
2023-05-16T13:56:53.402Z,16.90
2023-05-16T13:59:44.897Z,16.90
2023-05-16T14:02:09.783Z,16.90
2023-05-16T14:04:36.626Z,17.10
2023-05-16T14:07:03.637Z,17.10
2023-05-16T14:09:31.449Z,17.20
2023-05-16T14:11:58.419Z,17.20
2023-05-16T14:14:25.234Z,17.20
2023-05-16T14:16:52.822Z,17.20
2023-05-16T14:19:19.949Z,17.20
2023-05-16T14:21:46.980Z,17.30
2023-05-16T14:24:14.066Z,17.40
2023-05-16T14:26:43.990Z,17.40
2023-05-16T14:29:11.072Z,17.40
2023-05-16T14:31:38.110Z,17.30
2023-05-16T14:34:05.087Z,17.30
2023-05-16T14:36:32.417Z,17.40
2023-05-16T14:38:59.392Z,17.50
2023-05-16T14:41:26.658Z,17.40
2023-05-16T14:43:53.545Z,17.50
2023-05-16T14:46:20.467Z,17.50
2023-05-16T14:48:47.383Z,17.70
2023-05-16T14:51:15.190Z,17.60
2023-05-16T14:53:42.068Z,17.60
2023-05-16T14:56:08.946Z,17.70
2023-05-16T14:58:35.877Z,17.70
2023-05-16T15:01:02.751Z,17.60
2023-05-16T15:03:35.464Z,17.60
2023-05-16T15:06:10.422Z,17.60
2023-05-16T15:08:38.817Z,17.60
2023-05-16T15:11:05.759Z,17.60
2023-05-16T15:13:32.824Z,17.60
2023-05-16T15:16:00.035Z,17.60
2023-05-16T15:18:27.061Z,17.60
2023-05-16T15:20:53.941Z,17.60
2023-05-16T15:23:20.888Z,17.60
2023-05-16T15:25:47.786Z,17.50
2023-05-16T15:28:14.841Z,17.50
2023-05-16T15:30:41.698Z,17.50
2023-05-16T15:33:08.670Z,17.50
2023-05-16T15:35:35.752Z,17.50
2023-05-16T15:38:02.577Z,17.50
2023-05-16T15:40:29.478Z,17.50
2023-05-16T15:42:56.302Z,17.40
2023-05-16T15:45:23.172Z,17.40
2023-05-16T15:47:50.080Z,17.30
2023-05-16T15:50:17.006Z,17.10
2023-05-16T15:52:43.983Z,17.20
2023-05-16T15:55:12.039Z,17.10
2023-05-16T15:57:39.004Z,17.10
2023-05-16T16:00:06.478Z,17.10
2023-05-16T16:02:38.614Z,17.10
2023-05-16T16:05:06.365Z,17.10
2023-05-16T16:07:33.229Z,17.10
2023-05-16T16:10:00.260Z,17.00
2023-05-16T16:12:29.680Z,17.00
2023-05-16T16:14:56.576Z,16.90
2023-05-16T16:17:23.535Z,16.90
2023-05-16T16:19:51.783Z,17.00
2023-05-16T16:22:20.373Z,17.00
2023-05-16T16:24:48.566Z,17.00
2023-05-16T16:27:15.498Z,17.10
2023-05-16T16:29:42.422Z,17.00
2023-05-16T16:32:09.280Z,16.90
2023-05-16T16:34:36.244Z,16.90
2023-05-16T16:37:03.972Z,16.90
2023-05-16T16:39:33.123Z,16.90
2023-05-16T16:42:00.419Z,16.90
2023-05-16T16:44:27.562Z,17.00
2023-05-16T16:46:55.018Z,17.00
2023-05-16T16:49:22.131Z,17.10
2023-05-16T16:51:50.041Z,17.10
2023-05-16T16:54:16.946Z,17.10
2023-05-16T16:56:43.919Z,17.10
2023-05-16T16:59:11.538Z,17.00
2023-05-16T17:01:38.566Z,17.00
2023-05-16T17:04:05.486Z,16.90
2023-05-16T17:06:32.522Z,16.90
2023-05-16T17:09:03.516Z,16.90
2023-05-16T17:11:31.309Z,16.90
2023-05-16T17:13:59.626Z,16.90
2023-05-16T17:16:27.952Z,16.80
2023-05-16T17:18:55.687Z,16.80
2023-05-16T17:21:22.651Z,16.80
2023-05-16T17:23:53.343Z,16.80
2023-05-16T17:26:22.817Z,16.90
2023-05-16T17:28:49.703Z,17.00
2023-05-16T17:31:16.773Z,17.00
2023-05-16T17:33:44.418Z,17.00
2023-05-16T17:36:11.355Z,16.90
2023-05-16T17:38:38.333Z,17.00
2023-05-16T17:41:05.339Z,17.10
2023-05-16T17:43:32.181Z,17.20
2023-05-16T17:45:59.246Z,17.30
2023-05-16T17:48:26.078Z,17.30
2023-05-16T17:50:53.021Z,17.50
2023-05-16T17:53:19.899Z,17.50
2023-05-16T17:55:46.785Z,17.60
2023-05-16T17:58:13.931Z,17.70
2023-05-16T18:00:40.920Z,17.70
2023-05-16T18:03:08.566Z,17.80
2023-05-16T18:05:35.996Z,17.90
2023-05-16T18:08:03.810Z,17.90
2023-05-16T18:10:47.417Z,17.80
2023-05-16T18:13:18.328Z,17.70
2023-05-16T18:15:45.274Z,17.60
2023-05-16T18:18:12.713Z,17.40
2023-05-16T18:20:39.684Z,17.30
2023-05-16T18:23:08.178Z,17.20
2023-05-16T18:25:35.043Z,17.10
2023-05-16T18:28:01.944Z,16.90
2023-05-16T18:30:28.807Z,16.90
2023-05-16T18:32:55.726Z,16.90
2023-05-16T18:35:23.653Z,17.10
2023-05-16T18:37:50.776Z,17.10
2023-05-16T18:40:18.029Z,16.90
2023-05-16T18:42:44.872Z,16.70
2023-05-16T18:45:11.861Z,16.70
2023-05-16T18:47:38.953Z,16.70
2023-05-16T18:50:06.576Z,16.60
2023-05-16T18:52:35.303Z,16.50
2023-05-16T18:55:02.230Z,16.50
2023-05-16T18:57:29.224Z,16.40
2023-05-16T18:59:56.654Z,16.40
2023-05-16T19:02:34.085Z,16.30
2023-05-16T19:05:08.655Z,16.30
2023-05-16T19:07:35.931Z,16.20
2023-05-16T19:10:03.748Z,16.20
2023-05-16T19:12:30.959Z,16.10
2023-05-16T19:14:57.824Z,16.10
2023-05-16T19:17:25.148Z,16.10
2023-05-16T19:19:52.247Z,16.10
2023-05-16T19:22:19.203Z,16.00
2023-05-16T19:24:46.001Z,16.00
2023-05-16T19:27:12.977Z,16.00
2023-05-16T19:29:39.890Z,16.00
2023-05-16T19:32:07.161Z,15.90
2023-05-16T19:34:34.077Z,15.80
2023-05-16T19:37:03.339Z,15.80
2023-05-16T19:39:32.023Z,15.80
2023-05-16T19:42:06.644Z,15.80
2023-05-16T19:44:34.185Z,15.70
2023-05-16T19:47:01.009Z,15.70
2023-05-16T19:49:28.756Z,15.70
2023-05-16T19:51:55.897Z,15.70
2023-05-16T19:54:22.756Z,15.60
2023-05-16T19:56:49.719Z,15.50
2023-05-16T19:59:16.665Z,15.40
2023-05-16T20:01:43.700Z,15.40
2023-05-16T20:04:11.581Z,15.30
2023-05-16T20:06:38.690Z,15.30
2023-05-16T20:09:07.223Z,15.20
2023-05-16T20:11:34.167Z,15.20
2023-05-16T20:14:01.088Z,15.20
2023-05-16T20:16:27.958Z,15.20
2023-05-16T20:18:54.905Z,15.10
2023-05-16T20:21:21.895Z,15.10
2023-05-16T20:23:48.801Z,15.10
2023-05-16T20:26:15.696Z,15.00
2023-05-16T20:28:42.532Z,15.00
2023-05-16T20:31:09.378Z,14.90
2023-05-16T20:33:36.437Z,14.90
2023-05-16T20:36:03.507Z,14.90
2023-05-16T20:38:30.997Z,14.80
2023-05-16T20:40:57.987Z,14.80
2023-05-16T20:43:26.734Z,14.70
2023-05-16T20:45:53.832Z,14.70
2023-05-16T20:48:20.895Z,14.60
2023-05-16T20:50:48.012Z,14.50
2023-05-16T20:53:14.905Z,14.50
2023-05-16T20:55:41.741Z,14.40
2023-05-16T20:58:08.629Z,14.30
2023-05-16T21:00:35.685Z,14.30
2023-05-16T21:03:03.008Z,14.30
2023-05-16T21:05:30.199Z,14.20
2023-05-16T21:07:57.072Z,14.00
2023-05-16T21:10:24.066Z,13.90
2023-05-16T21:12:50.992Z,13.80
2023-05-16T21:15:17.937Z,13.80
2023-05-16T21:17:45.058Z,13.70
2023-05-16T21:20:12.199Z,13.70
2023-05-16T21:22:39.116Z,13.70
2023-05-16T21:25:06.446Z,13.70
2023-05-16T21:27:33.340Z,13.70
2023-05-16T21:30:00.534Z,13.70
2023-05-16T21:32:32.452Z,13.70
2023-05-16T21:35:01.220Z,13.60
2023-05-16T21:37:28.184Z,13.60
2023-05-16T21:39:55.164Z,13.50
2023-05-16T21:42:21.985Z,13.50
2023-05-16T21:44:48.862Z,13.40
2023-05-16T21:47:15.678Z,13.40
2023-05-16T21:49:43.006Z,13.30
2023-05-16T21:52:09.867Z,13.30
2023-05-16T21:54:36.733Z,13.20
2023-05-16T21:57:03.726Z,13.20
2023-05-16T21:59:30.678Z,13.20
2023-05-16T22:01:57.595Z,13.20
2023-05-16T22:04:24.757Z,13.10
2023-05-16T22:06:51.752Z,13.10
2023-05-16T22:09:18.635Z,13.10
2023-05-16T22:11:45.459Z,13.00
2023-05-16T22:14:12.387Z,13.00
2023-05-16T22:16:39.320Z,13.00
2023-05-16T22:19:06.666Z,12.80
2023-05-16T22:21:33.600Z,12.80
2023-05-16T22:24:00.455Z,12.60
2023-05-16T22:26:27.296Z,12.60
2023-05-16T22:28:54.194Z,12.50
2023-05-16T22:31:21.184Z,12.40
2023-05-16T22:33:48.190Z,12.40
2023-05-16T22:36:15.081Z,12.40
2023-05-16T22:38:42.007Z,12.30
2023-05-16T22:41:08.929Z,12.30
2023-05-16T22:43:35.887Z,12.30
2023-05-16T22:46:03.401Z,12.20
2023-05-16T22:48:30.469Z,12.20
2023-05-16T22:50:57.759Z,12.20
2023-05-16T22:53:24.777Z,12.10
2023-05-16T22:55:51.689Z,12.10
2023-05-16T22:58:18.487Z,12.00
2023-05-16T23:00:45.526Z,11.80
2023-05-16T23:03:12.527Z,11.80
2023-05-16T23:05:39.507Z,11.70
2023-05-16T23:08:06.401Z,11.70
2023-05-16T23:10:33.335Z,11.70
2023-05-16T23:13:00.301Z,11.70
2023-05-16T23:15:27.375Z,11.50
2023-05-16T23:17:54.656Z,11.40
2023-05-16T23:20:22.455Z,11.40
2023-05-16T23:22:51.852Z,11.40
2023-05-16T23:25:18.737Z,11.30
2023-05-16T23:27:45.668Z,11.30
2023-05-16T23:30:12.813Z,11.20
2023-05-16T23:32:39.652Z,11.20
2023-05-16T23:35:06.896Z,11.20
2023-05-16T23:37:33.777Z,11.20
2023-05-16T23:40:00.765Z,11.10
2023-05-16T23:42:27.603Z,11.10
2023-05-16T23:44:54.486Z,11.10
2023-05-16T23:47:21.344Z,11.10
2023-05-16T23:49:48.161Z,11.10
2023-05-16T23:52:15.073Z,11.00
2023-05-16T23:54:42.032Z,11.00
2023-05-16T23:57:08.928Z,10.90
2023-05-16T23:59:35.820Z,10.80
